Time;durP1;ratioP1;P1;durP2;ratioP2;P2;SDS_P1;SDS_P2;PMS_P1;PMS_P2;Temp;Humidity;BMP_temperature;BMP_pressure;BME280_temperature;BME280_humidity;BME280_pressure;Samples;Min_cycle;Max_cycle;Signal;HPM_P1;HPM_P2
2021/11/14 00:08:59;;;;;;;40.15;35.85;;;7.10;1.00;;;;;;4986481;28;20326;-86
2021/11/14 00:11:31;;;;;;;40.90;36.35;;;7.10;1.00;;;;;;5002387;28;20232;-85
2021/11/14 00:14:08;;;;;;;42.33;35.92;;;7.10;1.00;;;;;;5019361;28;20328;-86
2021/11/14 00:16:43;;;;;;;40.55;35.95;;;7.10;1.00;;;;;;5068958;28;20330;-86
2021/11/14 00:19:36;;;;;;;40.90;36.60;;;7.10;1.00;;;;;;5068646;28;20219;-85
2021/11/14 00:22:18;;;;;;;41.38;36.63;;;7.10;1.00;;;;;;5075767;28;21555;-85
2021/11/14 00:24:55;;;;;;;49.05;41.00;;;7.10;1.00;;;;;;5072491;28;20300;-85
2021/11/14 00:27:44;;;;;;;46.80;39.38;;;7.20;1.00;;;;;;5077473;28;20214;-85
2021/11/14 00:30:34;;;;;;;43.63;38.70;;;7.20;1.00;;;;;;5071190;28;20327;-85
2021/11/14 00:33:25;;;;;;;81.93;65.20;;;7.20;1.00;;;;;;5075234;28;20240;-85
2021/11/14 00:36:17;;;;;;;42.85;38.45;;;7.20;1.00;;;;;;5078157;28;20277;-83
2021/11/14 00:39:00;;;;;;;43.60;38.90;;;7.20;1.00;;;;;;5076298;28;20223;-85
2021/11/14 00:41:32;;;;;;;43.40;38.70;;;7.20;1.00;;;;;;5079232;28;20251;-84
2021/11/14 00:44:04;;;;;;;40.47;36.45;;;7.30;1.00;;;;;;5085453;28;20310;-84
2021/11/14 00:46:33;;;;;;;40.47;35.33;;;7.30;1.00;;;;;;5096483;27;20338;-85
2021/11/14 00:49:11;;;;;;;42.75;36.28;;;7.30;1.00;;;;;;5083420;28;20218;-86
2021/11/14 00:51:54;;;;;;;;;;;;;;;;;;;;;
2021/11/14 00:57:16;;;;;;;39.22;34.95;;;7.30;1.00;;;;;;5086556;28;20239;-86
2021/11/14 00:59:53;;;;;;;37.30;33.47;;;7.30;1.00;;;;;;5083345;28;20204;-86
2021/11/14 01:02:44;;;;;;;41.83;36.60;;;7.30;1.00;;;;;;5091423;27;20212;-85
2021/11/14 01:08:32;;;;;;;37.22;32.30;;;7.30;1.00;;;;;;5075331;28;20355;-86
2021/11/14 01:11:37;;;;;;;37.13;33.33;;;7.30;1.00;;;;;;5091958;27;20225;-85
2021/11/14 01:21:24;;;;;;;35.25;31.40;;;7.40;1.00;;;;;;4906407;28;20449;-85
2021/11/14 01:24:20;;;;;;;37.08;33.22;;;7.50;1.00;;;;;;5090740;27;20225;-84
2021/11/14 01:27:02;;;;;;;34.35;30.65;;;7.40;1.00;;;;;;5062022;28;20228;-84
2021/11/14 01:32:45;;;;;;;34.17;30.58;;;7.40;1.00;;;;;;5070780;28;21081;-84
2021/11/14 01:35:25;;;;;;;35.92;32.17;;;7.40;1.00;;;;;;5070490;28;20228;-84
2021/11/14 01:41:03;;;;;;;37.00;33.10;;;7.50;1.00;;;;;;5076575;28;20229;-84
2021/11/14 01:44:20;;;;;;;35.60;31.60;;;7.50;1.00;;;;;;5080203;28;20677;-85
2021/11/14 01:50:16;;;;;;;;;;;;;;;;;;;;;
2021/11/14 01:55:53;;;;;;;33.35;29.95;;;7.60;1.00;;;;;;5104933;27;22381;-85
2021/11/14 01:59:05;;;;;;;;;;;;;;;;;;;;;
2021/11/14 02:02:07;;;;;;;35.03;27.77;;;7.70;1.00;;;;;;5075755;28;20209;-85
2021/11/14 02:07:38;;;;;;;30.35;25.10;;;7.80;1.00;;;;;;5031607;28;20247;-85
2021/11/14 02:10:34;;;;;;;27.52;24.00;;;7.90;1.00;;;;;;5031137;28;20275;-85
2021/11/14 02:13:38;;;;;;;;;;;;;;;;;;;;;
2021/11/14 02:22:38;;;;;;;31.13;26.13;;;8.00;1.00;;;;;;5061294;28;20217;-84
2021/11/14 02:25:54;;;;;;;;;;;;;;;;;;;;;
2021/11/14 02:28:44;;;;;;;32.20;28.70;;;7.90;1.00;;;;;;5082752;28;20216;-84
2021/11/14 02:32:05;;;;;;;35.00;30.80;;;7.90;1.00;;;;;;5078573;28;20240;-84
2021/11/14 02:34:47;;;;;;;34.72;31.08;;;7.80;1.00;;;;;;5077247;28;20221;-84
2021/11/14 02:37:18;;;;;;;35.83;32.03;;;7.80;1.00;;;;;;5075394;28;20243;-85
2021/11/14 02:39:54;;;;;;;38.63;34.75;;;7.80;1.00;;;;;;5074308;28;21126;-84
2021/11/14 02:42:54;;;;;;;39.70;35.65;;;7.80;1.00;;;;;;5076205;28;20222;-85
2021/11/14 02:45:32;;;;;;;38.78;34.65;;;7.80;1.00;;;;;;5077869;28;20294;-85
2021/11/14 02:48:09;;;;;;;39.15;35.05;;;7.80;1.00;;;;;;5077616;28;20238;-85
2021/11/14 02:51:12;;;;;;;42.40;37.47;;;7.80;1.00;;;;;;5077783;28;20211;-85
2021/11/14 02:54:20;;;;;;;37.97;34.05;;;7.80;1.00;;;;;;5076977;28;20383;-86
2021/11/14 03:00:21;;;;;;;38.78;34.80;;;7.70;1.00;;;;;;4807372;26;20623;-84
2021/11/14 03:03:27;;;;;;;39.08;34.83;;;7.60;1.00;;;;;;5044625;28;20234;-84
2021/11/14 03:06:25;;;;;;;36.08;32.35;;;7.70;1.00;;;;;;5031060;28;21330;-84
2021/11/14 03:21:30;;;;;;;33.22;29.80;;;7.80;1.00;;;;;;4977171;28;20227;-84
2021/11/14 03:24:13;;;;;;;30.95;26.80;;;7.70;1.00;;;;;;5000655;28;20285;-83
2021/11/14 03:27:13;;;;;;;33.00;29.10;;;7.60;1.00;;;;;;4985479;28;20272;-83
2021/11/14 03:30:21;;;;;;;31.50;28.10;;;7.70;1.00;;;;;;4963979;28;20264;-83
2021/11/14 03:33:58;;;;;;;34.72;29.92;;;7.70;1.00;;;;;;5019129;28;20226;-84
2021/11/14 03:37:06;;;;;;;27.60;24.60;;;7.70;1.00;;;;;;4963576;28;20315;-85
2021/11/14 03:40:28;;;;;;;;;;;;;;;;;;;;;
2021/11/14 03:43:47;;;;;;;31.25;24.65;;;7.80;1.00;;;;;;4955663;28;20752;-86
2021/11/14 03:46:48;;;;;;;32.97;25.90;;;7.80;1.00;;;;;;5011049;28;20236;-86
2021/11/14 03:49:46;;;;;;;27.48;24.58;;;7.80;1.00;;;;;;5019949;28;20246;-85
2021/11/14 03:59:38;;;;;;;28.00;24.20;;;7.70;1.00;;;;;;5018056;28;20258;-86
2021/11/14 04:16:09;;;;;;;27.73;24.73;;;7.80;1.00;;;;;;4981936;28;21225;-85
2021/11/14 04:19:32;;;;;;;27.73;24.80;;;7.80;1.00;;;;;;4990662;28;20256;-85
2021/11/14 04:22:28;;;;;;;27.40;23.65;;;7.80;1.00;;;;;;5023467;28;20227;-85
2021/11/14 04:25:37;;;;;;;25.90;23.00;;;7.70;1.00;;;;;;5039047;28;20310;-85
2021/11/14 04:28:25;;;;;;;28.30;24.15;;;7.80;1.00;;;;;;5072842;22;20236;-83
2021/11/14 04:31:52;;;;;;;29.50;24.33;;;7.70;1.00;;;;;;5103762;27;20230;-85
2021/11/14 04:35:00;;;;;;;26.45;23.52;;;7.70;1.00;;;;;;5084394;28;20221;-84
2021/11/14 04:38:10;;;;;;;27.33;23.08;;;7.70;1.00;;;;;;5079555;28;20240;-85
2021/11/14 04:41:21;;;;;;;27.40;21.85;;;7.70;1.00;;;;;;5059570;28;20229;-84
2021/11/14 04:44:24;;;;;;;27.75;23.40;;;7.70;1.00;;;;;;5044788;28;20297;-85
2021/11/14 04:50:39;;;;;;;28.20;22.77;;;7.80;1.00;;;;;;5059351;28;20214;-84
2021/11/14 05:01:18;;;;;;;25.60;19.88;;;7.80;1.00;;;;;;5053674;28;20304;-84
2021/11/14 05:10:39;;;;;;;26.80;18.50;;;7.90;1.00;;;;;;5017326;28;21026;-86
2021/11/14 05:13:38;;;;;;;23.63;19.23;;;7.90;1.00;;;;;;5055197;28;20229;-85
2021/11/14 05:22:32;;;;;;;23.27;18.77;;;7.80;1.00;;;;;;5002360;28;20312;-85
2021/11/14 05:28:23;;;;;;;22.25;19.23;;;7.70;1.00;;;;;;5051040;28;20280;-85
2021/11/14 05:31:45;;;;;;;22.13;18.65;;;7.60;1.00;;;;;;5048611;28;20250;-85
2021/11/14 05:45:20;;;;;;;24.38;19.73;;;7.40;1.00;;;;;;4926697;28;20231;-84
2021/11/14 05:55:26;;;;;;;27.27;19.80;;;7.30;1.00;;;;;;4977169;28;20221;-84
2021/11/14 06:05:38;;;;;;;26.83;19.30;;;7.30;1.00;;;;;;5024125;28;20225;-83
2021/11/14 06:08:39;;;;;;;23.55;19.92;;;7.20;1.00;;;;;;5061450;28;20228;-84
2021/11/14 06:11:55;;;;;;;;;;;;;;;;;;;;;
2021/11/14 06:25:28;;;;;;;30.05;21.40;;;7.30;1.00;;;;;;5029113;28;20216;-84
2021/11/14 06:28:26;;;;;;;27.92;20.27;;;7.30;1.00;;;;;;5043310;28;20289;-84
2021/11/14 06:31:34;;;;;;;30.80;22.63;;;7.30;1.00;;;;;;5059784;28;20231;-84
2021/11/14 06:40:53;;;;;;;;;;;;;;;;;;;;;
2021/11/14 06:47:13;;;;;;;31.40;22.73;;;7.30;1.00;;;;;;5065639;28;20241;-84
2021/11/14 06:50:31;;;;;;;;;;;;;;;;;;;;;
2021/11/14 06:56:53;;;;;;;;;;;;;;;;;;;;;
2021/11/14 07:06:45;;;;;;;28.67;23.13;;;7.10;1.00;;;;;;5038207;28;20236;-84
2021/11/14 07:16:44;;;;;;;27.88;22.95;;;7.10;1.00;;;;;;4982409;28;20228;-85
2021/11/14 07:26:38;;;;;;;;;;;;;;;;;;;;;
2021/11/14 07:29:41;;;;;;;;;;;;;;;;;;;;;
2021/11/14 07:32:35;;;;;;;28.48;22.63;;;6.90;1.00;;;;;;4936814;28;20224;-84
2021/11/14 07:38:47;;;;;;;;;;;;;;;;;;;;;
2021/11/14 07:42:05;;;;;;;26.38;20.85;;;6.90;1.00;;;;;;5037116;28;20958;-84
2021/11/14 07:44:47;;;;;;;26.95;20.92;;;6.90;1.00;;;;;;5047165;28;20229;-84
2021/11/14 07:47:48;;;;;;;30.70;23.92;;;6.90;1.00;;;;;;5072490;22;20240;-85
2021/11/14 07:51:01;;;;;;;32.08;23.17;;;6.80;1.00;;;;;;5119160;27;20628;-84
2021/11/14 07:57:22;;;;;;;34.17;22.98;;;6.90;1.00;;;;;;5092223;28;20236;-84
2021/11/14 08:03:52;;;;;;;34.05;24.73;;;6.90;1.00;;;;;;5013637;28;20746;-84
2021/11/14 08:10:37;;;;;;;32.67;23.65;;;6.70;1.00;;;;;;5061131;28;20374;-84
2021/11/14 08:16:35;;;;;;;34.45;24.65;;;6.60;1.00;;;;;;5083455;28;20236;-85
2021/11/14 08:20:00;;;;;;;34.88;24.73;;;6.60;1.00;;;;;;5091636;28;20228;-84
2021/11/14 08:22:51;;;;;;;38.65;27.00;;;6.60;1.00;;;;;;5093384;28;20441;-83
2021/11/14 08:35:14;;;;;;;42.60;27.42;;;6.60;1.00;;;;;;5095641;27;20442;-89
2021/11/14 08:37:42;;;;;;;44.78;29.65;;;6.60;1.00;;;;;;5116461;27;20222;-89
2021/11/14 08:40:11;;;;;;;39.40;28.42;;;6.60;1.00;;;;;;5104627;27;20224;-85
2021/11/14 08:42:39;;;;;;;43.00;29.17;;;6.60;1.00;;;;;;5106327;27;20276;-86
2021/11/14 09:42:05;;;;;;;45.63;32.67;;;8.80;1.00;;;;;;3199928;25;20240;-77
2021/11/14 09:44:42;;;;;;;44.70;33.17;;;8.80;1.00;;;;;;5088292;27;21540;-77
2021/11/14 09:47:10;;;;;;;44.10;33.00;;;8.80;1.00;;;;;;5091533;27;20328;-76
2021/11/14 09:49:44;;;;;;;44.08;32.03;;;8.80;1.00;;;;;;5107540;27;20462;-76
2021/11/14 09:52:18;;;;;;;50.65;35.00;;;8.80;1.00;;;;;;5101858;27;20391;-76
2021/11/14 09:54:50;;;;;;;50.67;36.15;;;8.80;1.00;;;;;;5104010;27;20216;-77
2021/11/14 09:57:53;;;;;;;48.15;33.58;;;8.70;1.00;;;;;;5108731;27;20308;-78
2021/11/14 10:00:25;;;;;;;52.33;35.65;;;8.70;1.00;;;;;;5109791;27;21085;-77
2021/11/14 10:02:55;;;;;;;52.03;35.85;;;8.80;1.00;;;;;;5103206;27;20223;-75
2021/11/14 10:05:24;;;;;;;52.00;37.50;;;8.90;1.00;;;;;;5105782;27;20226;-76
2021/11/14 10:08:07;;;;;;;52.47;39.55;;;8.90;1.00;;;;;;5102234;27;20247;-75
2021/11/14 10:10:49;;;;;;;58.60;39.60;;;9.00;1.00;;;;;;5084136;27;20227;-77
2021/11/14 10:13:24;;;;;;;51.05;35.90;;;9.00;1.00;;;;;;5101875;27;20452;-77
2021/11/14 10:16:09;;;;;;;56.77;36.93;;;9.00;1.00;;;;;;5109344;27;20217;-76
2021/11/14 10:18:53;;;;;;;58.63;38.27;;;9.10;1.00;;;;;;5100188;27;20456;-76
2021/11/14 10:24:19;;;;;;;57.80;37.87;;;9.70;1.00;;;;;;5105358;27;20432;-76
2021/11/14 10:26:47;;;;;;;52.60;39.37;;;10.10;1.00;;;;;;5106206;27;20443;-77
2021/11/14 10:29:18;;;;;;;50.60;35.23;;;10.40;1.00;;;;;;5107313;27;20492;-77
2021/11/14 10:31:53;;;;;;;50.97;36.30;;;10.60;1.00;;;;;;5105888;27;20541;-77
2021/11/14 10:35:00;;;;;;;;;;;;;;;;;;;;;
2021/11/14 10:37:31;;;;;;;54.73;37.30;;;10.70;1.00;;;;;;5101274;27;21016;-77
2021/11/14 10:40:04;;;;;;;49.80;36.80;;;10.70;1.00;;;;;;5104099;27;21072;-76
2021/11/14 10:42:38;;;;;;;53.77;38.97;;;10.70;1.00;;;;;;5106929;27;20460;-77
2021/11/14 10:45:21;;;;;;;51.17;39.57;;;10.70;1.00;;;;;;5103823;27;21130;-76
2021/11/14 10:48:02;;;;;;;59.40;40.53;;;10.70;1.00;;;;;;5105717;27;22533;-78
2021/11/14 10:50:44;;;;;;;54.87;38.00;;;10.70;1.00;;;;;;5090420;27;20455;-76
2021/11/14 10:53:27;;;;;;;56.80;39.67;;;10.70;1.00;;;;;;5115398;27;20568;-76
2021/11/14 10:55:57;;;;;;;55.87;40.57;;;10.80;1.00;;;;;;5115023;27;20439;-77
2021/11/14 10:58:26;;;;;;;57.87;42.40;;;10.80;1.00;;;;;;5117611;27;20481;-77
2021/11/14 11:00:58;;;;;;;52.80;39.63;;;10.90;1.00;;;;;;5114033;27;20460;-76
2021/11/14 11:03:33;;;;;;;56.53;41.87;;;11.00;1.00;;;;;;5094399;27;20462;-76
2021/11/14 11:06:00;;;;;;;52.23;38.10;;;11.00;1.00;;;;;;5109785;27;21924;-77
2021/11/14 11:08:27;;;;;;;54.47;38.50;;;11.00;1.00;;;;;;5108286;27;20459;-77
2021/11/14 11:10:57;;;;;;;57.60;42.80;;;10.90;1.00;;;;;;5120357;27;20409;-76
2021/11/14 11:13:33;;;;;;;57.13;41.13;;;10.80;1.00;;;;;;5108650;27;20545;-78
2021/11/14 11:16:04;;;;;;;57.60;40.07;;;10.80;1.00;;;;;;5108817;27;20439;-77
2021/11/14 11:18:31;;;;;;;55.93;41.20;;;10.90;1.00;;;;;;5108905;27;20528;-77
2021/11/14 11:21:02;;;;;;;58.10;40.20;;;10.80;1.00;;;;;;5106481;27;20446;-77
2021/11/14 11:23:30;;;;;;;54.07;41.77;;;10.80;1.00;;;;;;5106108;27;20459;-76
2021/11/14 11:25:58;;;;;;;58.30;41.17;;;10.80;1.00;;;;;;5108085;27;20429;-76
2021/11/14 11:28:27;;;;;;;66.33;44.20;;;10.80;1.00;;;;;;5102652;27;20445;-77
2021/11/14 11:30:55;;;;;;;59.47;40.87;;;10.80;1.00;;;;;;5107232;27;20432;-77
2021/11/14 11:33:26;;;;;;;56.17;41.90;;;10.80;1.00;;;;;;5088677;27;21305;-78
2021/11/14 11:35:54;;;;;;;65.40;44.27;;;10.70;1.00;;;;;;5106340;27;20435;-76
2021/11/14 11:38:21;;;;;;;58.90;43.53;;;10.50;1.00;;;;;;5105722;27;20422;-76
2021/11/14 11:40:48;;;;;;;58.30;44.30;;;10.50;1.00;;;;;;5099208;27;20725;-76
2021/11/14 11:43:15;;;;;;;62.00;44.50;;;10.40;1.00;;;;;;5108780;27;20498;-76
2021/11/14 11:45:45;;;;;;;67.23;48.60;;;10.40;1.00;;;;;;5107917;27;20467;-77
2021/11/14 11:48:19;;;;;;;64.27;44.63;;;10.30;1.00;;;;;;5115767;27;20582;-77
2021/11/14 11:50:48;;;;;;;65.33;43.90;;;10.30;1.00;;;;;;5106641;27;21069;-76
2021/11/14 11:53:23;;;;;;;69.40;46.58;;;10.20;1.00;;;;;;5107168;27;20463;-77
2021/11/14 11:56:02;;;;;;;68.03;46.47;;;10.20;1.00;;;;;;5087747;27;20234;-76
2021/11/14 11:58:38;;;;;;;65.13;44.73;;;10.20;1.00;;;;;;5109412;27;20451;-77
2021/11/14 12:01:05;;;;;;;57.80;43.30;;;10.20;1.00;;;;;;5107682;27;20437;-76
2021/11/14 12:03:34;;;;;;;66.37;44.10;;;10.30;1.00;;;;;;5106795;27;20453;-77
2021/11/14 12:06:04;;;;;;;64.13;44.90;;;10.30;1.00;;;;;;5109866;27;20463;-76
2021/11/14 12:08:36;;;;;;;65.00;43.23;;;10.30;1.00;;;;;;5105765;27;20472;-78
2021/11/14 12:11:03;;;;;;;57.80;43.73;;;10.30;1.00;;;;;;5108387;27;20459;-77
2021/11/14 12:13:31;;;;;;;68.37;46.27;;;10.30;1.00;;;;;;5112162;27;21337;-77
2021/11/14 12:16:00;;;;;;;57.33;41.80;;;10.30;1.00;;;;;;5104542;27;20471;-79
2021/11/14 12:18:42;;;;;;;62.17;43.90;;;10.20;1.00;;;;;;5106540;27;20445;-79
2021/11/14 12:21:21;;;;;;;62.30;43.20;;;10.20;1.00;;;;;;5104692;27;20450;-79
2021/11/14 12:23:55;;;;;;;64.23;44.50;;;10.10;1.00;;;;;;5107469;27;20456;-78
2021/11/14 12:26:27;;;;;;;59.37;43.37;;;10.00;1.00;;;;;;5109192;27;20532;-78
2021/11/14 12:28:55;;;;;;;70.33;44.70;;;10.00;1.00;;;;;;5112227;27;21286;-78
2021/11/14 12:31:25;;;;;;;64.33;44.07;;;10.00;1.00;;;;;;5088274;27;20450;-78
2021/11/14 12:33:54;;;;;;;66.73;44.90;;;10.00;1.00;;;;;;5111932;27;20969;-79
2021/11/14 12:36:32;;;;;;;69.53;45.27;;;9.90;1.00;;;;;;5111668;27;20438;-78
2021/11/14 12:39:07;;;;;;;69.93;47.93;;;9.80;1.00;;;;;;5114960;27;20478;-80
2021/11/14 12:41:34;;;;;;;67.93;43.97;;;9.80;1.00;;;;;;5112608;27;20486;-77
2021/11/14 12:44:01;;;;;;;71.93;45.63;;;9.70;1.00;;;;;;5109642;27;20433;-77
2021/11/14 12:46:28;;;;;;;70.77;46.70;;;9.70;1.00;;;;;;5109267;27;20532;-79
2021/11/14 12:48:55;;;;;;;71.70;47.43;;;9.60;1.00;;;;;;5089119;27;20479;-76
2021/11/14 12:51:26;;;;;;;77.40;48.63;;;9.60;1.00;;;;;;5102691;27;20458;-75
2021/11/14 12:53:55;;;;;;;72.73;47.87;;;9.60;1.00;;;;;;5112681;27;20898;-77
2021/11/14 12:56:28;;;;;;;77.30;47.17;;;9.60;1.00;;;;;;5087318;27;20460;-79
2021/11/14 12:58:55;;;;;;;81.27;47.40;;;9.50;1.00;;;;;;5110734;27;20445;-78
2021/11/14 13:01:24;;;;;;;77.70;47.50;;;9.60;1.00;;;;;;5103508;27;20452;-77
2021/11/14 13:03:51;;;;;;;75.03;46.60;;;9.50;1.00;;;;;;5107891;27;21306;-76
2021/11/14 13:06:21;;;;;;;75.90;48.77;;;9.50;1.00;;;;;;5102593;27;21210;-75
2021/11/14 13:08:49;;;;;;;65.97;45.43;;;9.40;1.00;;;;;;5103211;27;21063;-77
2021/11/14 13:11:22;;;;;;;70.43;46.67;;;9.40;1.00;;;;;;5105080;27;20461;-77
2021/11/14 13:13:50;;;;;;;69.70;47.57;;;9.50;1.00;;;;;;5112561;27;20444;-81
2021/11/14 13:16:21;;;;;;;74.80;49.57;;;9.40;1.00;;;;;;5107851;27;20471;-78
2021/11/14 13:18:48;;;;;;;66.70;44.27;;;9.40;1.00;;;;;;5105308;27;20453;-79
2021/11/14 13:21:18;;;;;;;72.77;47.73;;;9.40;1.00;;;;;;5107380;27;20619;-77
2021/11/14 13:23:56;;;;;;;72.05;45.08;;;9.40;1.00;;;;;;5114353;27;21276;-79
2021/11/14 13:26:30;;;;;;;69.33;42.53;;;9.40;1.00;;;;;;5117220;27;20402;-78
2021/11/14 13:28:57;;;;;;;65.17;45.00;;;9.50;1.00;;;;;;5108586;27;20569;-77
2021/11/14 13:31:24;;;;;;;68.50;46.17;;;9.50;1.00;;;;;;5102182;27;20777;-78
2021/11/14 13:34:01;;;;;;;66.83;44.73;;;9.40;1.00;;;;;;5105388;27;20449;-78
2021/11/14 13:36:28;;;;;;;68.60;43.10;;;9.30;1.00;;;;;;5091647;27;20457;-77
2021/11/14 13:38:56;;;;;;;65.90;42.00;;;9.30;1.00;;;;;;5091549;27;20868;-76
2021/11/14 13:41:23;;;;;;;63.17;42.80;;;9.30;1.00;;;;;;5104497;27;20463;-79
2021/11/14 13:43:56;;;;;;;62.22;41.95;;;9.30;1.00;;;;;;5107833;27;20863;-78
2021/11/14 13:46:24;;;;;;;67.18;44.03;;;9.30;1.00;;;;;;5105979;27;20230;-78
2021/11/14 13:48:52;;;;;;;75.07;45.03;;;9.20;1.00;;;;;;5107132;27;20227;-77
2021/11/14 13:51:19;;;;;;;71.10;44.33;;;9.20;1.00;;;;;;5102807;27;20477;-77
2021/11/14 13:53:46;;;;;;;64.67;40.33;;;9.20;1.00;;;;;;5105230;27;20262;-77
2021/11/14 13:56:17;;;;;;;71.97;44.03;;;9.20;1.00;;;;;;5113600;27;20433;-77
2021/11/14 13:58:51;;;;;;;63.60;41.50;;;9.20;1.00;;;;;;5109928;27;20436;-77
2021/11/14 14:01:18;;;;;;;71.20;42.60;;;9.10;1.00;;;;;;5111290;27;20515;-76
2021/11/14 14:03:46;;;;;;;70.15;42.17;;;9.10;1.00;;;;;;5116044;27;20219;-75
2021/11/14 14:06:13;;;;;;;64.63;40.63;;;9.10;1.00;;;;;;5114195;27;21103;-75
2021/11/14 14:08:41;;;;;;;70.20;41.23;;;9.10;1.00;;;;;;5113412;27;20461;-76
2021/11/14 14:11:10;;;;;;;72.97;42.00;;;9.00;1.00;;;;;;5120834;27;20532;-76
2021/11/14 14:13:51;;;;;;;67.90;42.27;;;9.00;1.00;;;;;;5116705;27;20451;-77
2021/11/14 14:16:18;;;;;;;63.83;40.10;;;9.10;1.00;;;;;;5115604;27;20440;-76
2021/11/14 14:18:45;;;;;;;67.30;42.07;;;9.10;1.00;;;;;;5116515;27;20978;-76
2021/11/14 14:21:12;;;;;;;69.57;40.97;;;9.10;1.00;;;;;;5112937;27;20453;-77
2021/11/14 14:23:39;;;;;;;62.70;40.50;;;9.00;1.00;;;;;;5118709;27;20514;-75
2021/11/14 14:26:18;;;;;;;65.70;42.40;;;9.00;1.00;;;;;;5111692;27;21470;-74
2021/11/14 14:28:47;;;;;;;57.80;39.67;;;9.10;1.00;;;;;;5122154;27;20490;-75
2021/11/14 14:31:15;;;;;;;58.27;37.77;;;9.00;1.00;;;;;;5107834;27;20454;-76
2021/11/14 14:33:51;;;;;;;61.30;38.75;;;9.00;1.00;;;;;;5115484;27;20445;-77
2021/11/14 14:36:18;;;;;;;59.22;37.05;;;9.10;1.00;;;;;;5110307;27;20224;-76
2021/11/14 14:38:45;;;;;;;62.00;36.10;;;9.00;1.00;;;;;;5113308;27;20305;-77
2021/11/14 14:41:14;;;;;;;56.23;34.00;;;9.00;1.00;;;;;;5114480;27;20498;-76
2021/11/14 14:43:43;;;;;;;55.00;33.87;;;8.90;1.00;;;;;;5111146;27;21140;-77
2021/11/14 14:46:13;;;;;;;53.40;36.35;;;8.90;1.00;;;;;;5109911;27;20461;-77
2021/11/14 14:48:42;;;;;;;58.15;34.50;;;8.90;1.00;;;;;;5121221;27;20235;-77
2021/11/14 14:51:12;;;;;;;53.95;33.72;;;8.80;1.00;;;;;;5103267;27;20229;-77
2021/11/14 14:53:41;;;;;;;58.50;34.53;;;8.70;1.00;;;;;;5113134;27;20211;-77
2021/11/14 14:56:15;;;;;;;59.00;37.53;;;8.70;1.00;;;;;;5114437;27;20217;-78
2021/11/14 14:58:53;;;;;;;60.60;37.95;;;8.60;1.00;;;;;;5112279;27;21055;-76
2021/11/14 15:01:24;;;;;;;57.50;34.65;;;8.60;1.00;;;;;;5111539;27;20317;-76
2021/11/14 15:03:50;;;;;;;62.22;37.22;;;8.70;1.00;;;;;;5114755;27;20875;-77
2021/11/14 15:06:17;;;;;;;52.90;31.63;;;8.60;1.00;;;;;;5114259;27;21732;-76
2021/11/14 15:08:44;;;;;;;62.45;35.83;;;8.60;1.00;;;;;;5110938;27;20255;-77
2021/11/14 15:11:11;;;;;;;58.05;36.92;;;8.60;1.00;;;;;;5112156;27;20231;-76
2021/11/14 15:13:38;;;;;;;54.92;35.83;;;8.60;1.00;;;;;;5108790;27;20220;-77
2021/11/14 15:16:17;;;;;;;55.35;34.63;;;8.50;1.00;;;;;;5114587;27;20339;-77
2021/11/14 15:18:45;;;;;;;69.28;39.40;;;8.40;1.00;;;;;;5111301;27;20355;-77
2021/11/14 15:21:12;;;;;;;59.60;37.78;;;8.40;1.00;;;;;;5112380;27;20220;-78
2021/11/14 15:23:39;;;;;;;66.90;41.85;;;8.40;1.00;;;;;;5114359;27;20791;-77
2021/11/14 15:26:06;;;;;;;64.40;41.45;;;8.40;1.00;;;;;;5115719;27;20215;-78
2021/11/14 15:28:36;;;;;;;58.70;37.47;;;8.40;1.00;;;;;;5098787;27;20226;-77
2021/11/14 15:31:05;;;;;;;61.45;38.38;;;8.40;1.00;;;;;;5112399;27;20342;-78
2021/11/14 15:33:35;;;;;;;66.05;39.83;;;8.40;1.00;;;;;;5094932;27;20220;-78
2021/11/14 15:36:04;;;;;;;84.00;50.45;;;8.30;1.00;;;;;;5111242;27;20223;-77
2021/11/14 15:38:32;;;;;;;69.30;41.08;;;8.20;1.00;;;;;;5118572;27;20332;-79
2021/11/14 15:41:02;;;;;;;64.45;38.50;;;8.20;1.00;;;;;;5114002;27;20235;-78
2021/11/14 15:43:29;;;;;;;66.05;39.58;;;8.20;1.00;;;;;;5122858;27;20215;-78
2021/11/14 15:45:56;;;;;;;64.97;37.75;;;8.20;1.00;;;;;;5121817;27;20219;-79
2021/11/14 15:48:23;;;;;;;69.75;39.25;;;8.20;1.00;;;;;;5114539;27;20232;-78
2021/11/14 15:50:52;;;;;;;70.97;42.08;;;8.20;1.00;;;;;;5116128;27;20259;-76
2021/11/14 15:53:23;;;;;;;70.00;40.83;;;8.20;1.00;;;;;;5097233;27;20351;-78
2021/11/14 15:55:52;;;;;;;69.03;40.05;;;8.20;1.00;;;;;;5114300;27;20918;-78
2021/11/14 15:58:19;;;;;;;64.50;39.10;;;8.30;1.00;;;;;;5094123;27;20245;-77
2021/11/14 16:00:48;;;;;;;66.13;38.35;;;8.20;1.00;;;;;;5111373;27;20223;-77
2021/11/14 16:03:15;;;;;;;67.65;40.60;;;8.20;1.00;;;;;;5112596;27;20245;-77
2021/11/14 16:05:43;;;;;;;65.97;39.20;;;8.40;1.00;;;;;;5111081;27;20218;-77
2021/11/14 16:08:10;;;;;;;71.28;39.05;;;8.40;1.00;;;;;;5111803;27;20516;-77
2021/11/14 16:10:39;;;;;;;71.57;41.08;;;8.50;1.00;;;;;;5115260;27;21014;-77
2021/11/14 16:13:06;;;;;;;72.40;43.83;;;8.50;1.00;;;;;;5118923;27;20225;-77
2021/11/14 16:15:33;;;;;;;64.53;38.15;;;8.50;1.00;;;;;;5119128;27;20224;-77
2021/11/14 16:18:00;;;;;;;69.63;39.50;;;8.50;1.00;;;;;;5120303;27;20224;-76
2021/11/14 16:20:28;;;;;;;65.97;37.77;;;8.40;1.00;;;;;;5116591;27;20268;-78
2021/11/14 16:22:56;;;;;;;67.70;39.13;;;8.40;1.00;;;;;;5116420;27;21307;-77
2021/11/14 16:25:24;;;;;;;67.57;37.95;;;8.40;1.00;;;;;;5110848;27;20311;-78
2021/11/14 16:27:53;;;;;;;67.07;40.20;;;8.30;1.00;;;;;;5113234;27;20235;-77
2021/11/14 16:30:23;;;;;;;69.75;39.63;;;8.30;1.00;;;;;;5113597;27;20676;-78
2021/11/14 16:32:50;;;;;;;63.25;38.33;;;8.30;1.00;;;;;;5113424;27;20217;-77
2021/11/14 16:35:17;;;;;;;63.72;38.30;;;8.40;1.00;;;;;;5116514;27;23337;-77
2021/11/14 16:37:44;;;;;;;67.32;37.95;;;8.40;1.00;;;;;;5108979;27;20228;-77
2021/11/14 16:40:11;;;;;;;65.55;39.63;;;8.40;1.00;;;;;;5112912;27;20209;-78
2021/11/14 16:42:38;;;;;;;68.35;41.50;;;8.30;1.00;;;;;;5109983;27;20217;-77
2021/11/14 16:45:08;;;;;;;70.40;38.07;;;8.30;1.00;;;;;;5112997;27;20270;-77
2021/11/14 16:47:35;;;;;;;66.70;40.03;;;8.30;1.00;;;;;;5113320;27;20454;-77
2021/11/14 16:50:02;;;;;;;61.45;36.47;;;8.30;1.00;;;;;;5117535;27;20470;-76
2021/11/14 16:52:29;;;;;;;58.42;37.10;;;8.30;1.00;;;;;;5109312;27;20222;-77
2021/11/14 16:54:56;;;;;;;61.05;38.13;;;8.30;1.00;;;;;;5110767;27;20254;-77
2021/11/14 16:57:23;;;;;;;65.77;37.10;;;8.30;1.00;;;;;;5107490;27;20219;-77
2021/11/14 16:59:50;;;;;;;70.33;40.57;;;8.30;1.00;;;;;;5111171;27;21609;-78
2021/11/14 17:02:18;;;;;;;74.18;42.13;;;8.30;1.00;;;;;;5117898;27;20490;-78
2021/11/14 17:04:46;;;;;;;66.00;38.80;;;8.30;1.00;;;;;;5110762;27;21072;-85
2021/11/14 17:07:13;;;;;;;66.43;38.72;;;8.30;1.00;;;;;;5109022;27;20218;-77
2021/11/14 17:09:40;;;;;;;67.03;41.17;;;8.30;1.00;;;;;;5107143;27;20238;-78
2021/11/14 17:12:10;;;;;;;68.30;40.47;;;8.30;1.00;;;;;;5112214;27;20463;-78
2021/11/14 17:14:37;;;;;;;70.05;39.50;;;8.30;1.00;;;;;;5112499;27;20490;-77
2021/11/14 17:17:04;;;;;;;68.43;40.20;;;8.40;1.00;;;;;;5109032;27;20229;-78
2021/11/14 17:19:33;;;;;;;66.10;41.17;;;8.40;1.00;;;;;;5112455;27;20266;-77
2021/11/14 17:22:00;;;;;;;66.25;42.17;;;8.30;1.00;;;;;;5111654;27;20219;-78
2021/11/14 17:24:26;;;;;;;70.13;40.65;;;8.30;1.00;;;;;;5110500;27;20220;-78
2021/11/14 17:26:53;;;;;;;62.53;38.10;;;8.20;1.00;;;;;;5103695;27;20231;-76
2021/11/14 17:29:20;;;;;;;62.13;37.20;;;8.20;1.00;;;;;;5112359;27;20786;-78
2021/11/14 17:31:46;;;;;;;76.70;42.17;;;8.20;1.00;;;;;;5116694;27;20219;-76
2021/11/14 17:34:15;;;;;;;74.88;38.95;;;8.20;1.00;;;;;;5113718;27;20238;-76
2021/11/14 17:36:42;;;;;;;60.40;38.22;;;8.10;1.00;;;;;;5114237;27;20726;-78
2021/11/14 17:39:09;;;;;;;62.88;38.65;;;8.10;1.00;;;;;;5096194;27;20228;-77
2021/11/14 17:41:37;;;;;;;57.40;36.10;;;8.10;1.00;;;;;;5112799;27;20218;-76
2021/11/14 17:44:05;;;;;;;57.88;35.78;;;8.10;1.00;;;;;;5115644;27;20230;-75
2021/11/14 17:46:32;;;;;;;59.33;37.40;;;8.00;1.00;;;;;;5118302;27;20224;-78
2021/11/14 17:48:59;;;;;;;51.42;36.08;;;8.00;1.00;;;;;;5093392;27;20310;-77
2021/11/14 17:51:26;;;;;;;59.00;38.60;;;8.00;1.00;;;;;;5108773;27;20228;-77
2021/11/14 17:53:54;;;;;;;62.58;39.22;;;8.00;1.00;;;;;;5111831;27;20216;-77
2021/11/14 17:56:21;;;;;;;63.75;40.30;;;8.00;1.00;;;;;;5108995;27;20211;-77
2021/11/14 17:58:48;;;;;;;63.20;39.33;;;7.90;1.00;;;;;;5109024;27;20237;-77
2021/11/14 18:01:15;;;;;;;66.40;40.13;;;7.90;1.00;;;;;;5115738;27;20220;-78
2021/11/14 18:03:42;;;;;;;61.97;39.63;;;7.80;1.00;;;;;;5113243;27;20214;-76
2021/11/14 18:06:09;;;;;;;62.63;42.25;;;7.70;1.00;;;;;;5109023;27;20215;-78
2021/11/14 18:08:35;;;;;;;69.80;42.50;;;7.60;1.00;;;;;;5111015;27;20238;-79
2021/11/14 18:11:03;;;;;;;66.38;41.53;;;7.60;1.00;;;;;;5093807;27;20231;-78
2021/11/14 18:13:31;;;;;;;57.40;39.65;;;7.60;1.00;;;;;;5109132;27;20286;-78
2021/11/14 18:15:57;;;;;;;72.45;41.80;;;7.60;1.00;;;;;;5110226;27;20222;-79
2021/11/14 18:18:24;;;;;;;71.57;41.03;;;7.50;1.00;;;;;;5108115;27;20273;-78
2021/11/14 18:20:51;;;;;;;78.65;43.90;;;7.50;1.00;;;;;;5109177;27;20247;-79